Time;durP1;ratioP1;P1;durP2;ratioP2;P2;SDS_P1;SDS_P2;PMS_P1;PMS_P2;Temp;Humidity;BMP_temperature;BMP_pressure;BME280_temperature;BME280_humidity;BME280_pressure;Samples;Min_cycle;Max_cycle;Signal;HPM_P1;HPM_P2
2021/08/31 00:02:18;;;;;;;7.63;5.25;;;;;;;22.25;48.13;101795.25;5015623;28;20100;-80
2021/08/31 00:04:46;;;;;;;6.90;4.65;;;;;;;22.21;48.42;101793.84;5015026;28;20049;-81
2021/08/31 00:07:15;;;;;;;7.25;5.25;;;;;;;22.19;47.87;101803.31;5014897;28;20050;-80
2021/08/31 00:09:43;;;;;;;7.97;5.53;;;;;;;22.17;47.93;101805.38;5015840;28;20050;-79
2021/08/31 00:12:12;;;;;;;7.80;5.22;;;;;;;22.15;47.86;101801.91;5017293;28;20045;-80
2021/08/31 00:14:40;;;;;;;7.07;5.43;;;;;;;22.12;48.10;101805.84;5016462;28;20058;-80
2021/08/31 00:18:47;;;;;;;;;;;;;;;;;;;;;
2021/08/31 00:21:28;;;;;;;6.72;4.85;;;;;;;21.99;48.22;101808.06;4951820;29;20067;-80
2021/08/31 00:24:05;;;;;;;7.38;5.15;;;;;;;22.01;48.45;101806.03;4944298;28;20054;-80
2021/08/31 00:26:34;;;;;;;7.95;5.50;;;;;;;21.98;48.20;101798.06;5015913;28;20074;-80
2021/08/31 00:29:10;;;;;;;7.15;5.30;;;;;;;21.96;48.45;101802.84;4957930;29;20067;-80
2021/08/31 00:31:39;;;;;;;7.40;5.30;;;;;;;21.95;48.44;101812.16;4959077;29;20146;-80
2021/08/31 00:34:06;;;;;;;7.15;5.50;;;;;;;21.93;48.31;101801.25;4957116;28;20531;-80
2021/08/31 00:36:33;;;;;;;7.85;6.03;;;;;;;21.92;48.17;101804.16;4947576;28;20083;-80
2021/08/31 00:38:59;;;;;;;6.25;4.82;;;;;;;21.90;48.28;101804.34;4953820;29;20117;-80
2021/08/31 00:41:26;;;;;;;7.30;5.22;;;;;;;21.89;48.69;101804.47;4951906;29;20436;-80
2021/08/31 00:43:53;;;;;;;7.50;5.15;;;;;;;21.88;48.49;101806.38;4937255;29;20077;-80
2021/08/31 00:46:22;;;;;;;7.68;5.38;;;;;;;21.88;48.66;101811.91;4953333;28;20047;-80
2021/08/31 00:48:51;;;;;;;8.27;5.45;;;;;;;21.88;48.57;101811.91;5007026;28;20073;-80
2021/08/31 00:51:21;;;;;;;6.85;4.90;;;;;;;21.86;48.59;101802.00;5021230;28;20097;-81
2021/08/31 00:53:49;;;;;;;7.30;5.22;;;;;;;21.85;48.78;101820.50;5013746;28;20057;-80
2021/08/31 00:56:16;;;;;;;8.50;5.30;;;;;;;21.83;48.35;101818.91;5005554;28;20069;-81
2021/08/31 00:58:43;;;;;;;7.97;5.57;;;;;;;21.81;48.42;101819.06;5013896;28;20141;-81
2021/08/31 01:01:10;;;;;;;7.70;5.55;;;;;;;21.80;48.65;101825.63;4995810;28;20232;-80
2021/08/31 01:03:41;;;;;;;8.55;5.53;;;;;;;21.82;48.74;101822.72;4995315;28;20502;-80
2021/08/31 01:06:07;;;;;;;7.40;5.57;;;;;;;21.80;48.59;101833.03;5010146;28;20050;-81
2021/08/31 01:08:34;;;;;;;7.35;5.50;;;;;;;21.79;48.92;101834.06;5014146;28;20042;-80
2021/08/31 01:11:02;;;;;;;7.13;5.45;;;;;;;21.78;48.54;101837.84;5012460;28;20053;-81
2021/08/31 01:13:36;;;;;;;9.80;5.70;;;;;;;21.79;48.94;101834.94;5013366;28;20444;-81
2021/08/31 01:16:05;;;;;;;8.40;5.50;;;;;;;21.76;48.52;101835.22;5005712;28;20054;-80
2021/08/31 01:18:32;;;;;;;8.82;5.72;;;;;;;21.74;48.36;101836.41;5006235;28;20568;-80
2021/08/31 01:21:00;;;;;;;8.45;6.10;;;;;;;21.72;48.64;101833.81;5005115;28;20060;-81
2021/08/31 01:23:27;;;;;;;8.90;6.15;;;;;;;21.69;48.75;101834.09;5007110;28;20046;-81
2021/08/31 01:25:55;;;;;;;9.05;6.43;;;;;;;21.69;48.77;101833.22;5002635;28;20496;-81
2021/08/31 01:28:26;;;;;;;8.68;6.05;;;;;;;21.67;48.26;101833.34;4997181;28;20045;-80
2021/08/31 01:30:54;;;;;;;7.40;5.55;;;;;;;21.64;48.66;101841.97;5008995;28;20489;-81
2021/08/31 01:33:25;;;;;;;7.22;5.60;;;;;;;21.63;48.94;101835.56;5012228;28;20125;-80
2021/08/31 01:35:51;;;;;;;7.90;5.82;;;;;;;21.60;48.49;101829.47;5002159;28;20104;-80
2021/08/31 01:38:18;;;;;;;9.15;6.22;;;;;;;21.57;48.94;101827.88;5013987;28;20041;-81
2021/08/31 01:40:45;;;;;;;8.48;6.05;;;;;;;21.58;48.76;101831.50;5012889;28;20116;-80
2021/08/31 01:43:24;;;;;;;8.75;6.03;;;;;;;21.60;48.71;101843.28;5012055;28;20074;-80
2021/08/31 01:45:52;;;;;;;7.57;5.82;;;;;;;21.55;48.64;101843.75;5007974;28;20528;-80
2021/08/31 01:48:20;;;;;;;8.38;5.78;;;;;;;21.55;48.86;101851.16;5010756;28;20539;-80
2021/08/31 01:50:46;;;;;;;10.52;6.70;;;;;;;21.52;48.57;101844.03;5010560;28;20509;-80
2021/08/31 01:53:13;;;;;;;9.63;6.68;;;;;;;21.53;49.06;101847.66;5007777;28;20073;-81
2021/08/31 01:55:40;;;;;;;9.35;6.13;;;;;;;21.52;48.89;101849.56;4994036;28;20615;-80
2021/08/31 01:58:07;;;;;;;8.48;5.80;;;;;;;21.51;49.12;101846.94;5006341;28;20108;-81
2021/08/31 02:00:34;;;;;;;8.75;6.05;;;;;;;21.51;48.50;101850.56;4999106;28;20051;-81
2021/08/31 02:03:01;;;;;;;8.65;6.00;;;;;;;21.50;48.86;101854.34;4999945;28;20042;-81
2021/08/31 02:05:27;;;;;;;8.88;6.18;;;;;;;21.49;48.52;101857.28;5006512;28;20129;-80
2021/08/31 02:07:54;;;;;;;8.77;6.22;;;;;;;21.47;48.75;101856.56;5011153;28;20674;-81
2021/08/31 02:10:21;;;;;;;8.75;6.20;;;;;;;21.45;49.29;101858.59;5012779;28;20049;-81
2021/08/31 02:12:48;;;;;;;8.13;5.55;;;;;;;21.43;48.72;101855.97;5012615;28;20100;-80
2021/08/31 02:15:15;;;;;;;9.80;6.40;;;;;;;21.42;48.77;101862.50;4996709;28;20434;-81
2021/08/31 02:17:42;;;;;;;9.43;6.80;;;;;;;;;;5005949;28;20449;-80
2021/08/31 02:20:09;;;;;;;9.30;6.55;;;;;;;21.40;48.61;101864.59;5014539;28;20050;-80
2021/08/31 02:22:38;;;;;;;11.45;6.78;;;;;;;21.39;48.64;101873.00;5013068;28;20049;-80
2021/08/31 02:25:05;;;;;;;8.52;6.47;;;;;;;21.37;49.07;101864.88;5008613;28;20058;-81
2021/08/31 02:27:32;;;;;;;9.38;6.80;;;;;;;21.36;49.22;101863.13;5011435;28;20091;-80
2021/08/31 02:29:58;;;;;;;8.50;6.07;;;;;;;21.34;49.40;101858.75;5007984;28;20078;-81
2021/08/31 02:32:25;;;;;;;12.38;7.35;;;;;;;21.33;49.25;101857.88;4996196;28;20556;-81
2021/08/31 02:34:51;;;;;;;9.30;6.57;;;;;;;21.32;49.12;101858.94;5011722;28;20089;-81
2021/08/31 02:37:18;;;;;;;9.45;7.13;;;;;;;21.32;49.35;101861.69;5021512;28;20046;-81
2021/08/31 02:39:45;;;;;;;11.80;7.45;;;;;;;21.32;49.13;101861.69;5012736;28;20080;-81
2021/08/31 02:42:11;;;;;;;9.77;6.68;;;;;;;21.31;48.98;101857.19;5008731;28;20140;-81
2021/08/31 02:44:38;;;;;;;8.90;6.32;;;;;;;21.30;49.10;101858.19;5006821;28;20050;-81
2021/08/31 02:47:05;;;;;;;7.60;6.38;;;;;;;21.30;48.98;101855.44;5008601;28;20042;-81
2021/08/31 02:49:31;;;;;;;9.98;6.78;;;;;;;21.30;49.51;101860.94;5009543;28;20108;-81
2021/08/31 02:51:58;;;;;;;9.20;7.93;;;;;;;21.31;48.91;101859.06;5010132;28;20153;-81
2021/08/31 02:54:25;;;;;;;11.20;6.70;;;;;;;21.31;48.98;101859.94;5007475;28;20065;-80
2021/08/31 02:56:51;;;;;;;10.02;6.43;;;;;;;21.32;49.26;101860.81;5003828;28;20041;-81
2021/08/31 02:59:18;;;;;;;10.15;6.97;;;;;;;21.31;49.36;101856.31;5008372;28;20483;-80
2021/08/31 03:02:07;;;;;;;10.90;7.70;;;;;;;21.32;49.43;101850.63;5008813;28;20121;-81
2021/08/31 03:04:44;;;;;;;9.32;6.85;;;;;;;21.31;49.04;101853.53;5005047;28;20409;-81
2021/08/31 03:07:13;;;;;;;10.48;7.18;;;;;;;21.31;49.42;101867.34;5007843;28;20077;-81
2021/08/31 03:09:41;;;;;;;9.80;7.03;;;;;;;21.30;49.52;101858.19;5002498;28;20050;-81
2021/08/31 03:12:09;;;;;;;12.27;7.35;;;;;;;21.29;49.44;101856.44;5007207;28;20080;-81
2021/08/31 03:14:35;;;;;;;9.00;7.18;;;;;;;21.28;49.42;101854.69;5007025;28;20038;-81
2021/08/31 03:17:02;;;;;;;11.27;7.85;;;;;;;21.27;49.65;101853.81;5010578;28;20100;-81
2021/08/31 03:19:29;;;;;;;10.10;7.22;;;;;;;21.27;49.12;101853.81;5008638;28;20214;-81
2021/08/31 03:21:58;;;;;;;11.77;8.00;;;;;;;21.29;49.20;101856.44;5006957;28;20042;-81
2021/08/31 03:24:26;;;;;;;10.68;7.63;;;;;;;21.28;49.66;101857.47;5021541;28;20129;-81
2021/08/31 03:26:53;;;;;;;11.55;7.60;;;;;;;21.29;49.68;101863.84;5000685;28;20038;-81
2021/08/31 03:29:20;;;;;;;11.60;8.35;;;;;;;21.27;49.45;101855.72;5008485;28;20104;-81
2021/08/31 03:31:47;;;;;;;10.15;7.70;;;;;;;21.26;49.50;101859.50;5005540;28;20382;-81
2021/08/31 03:34:14;;;;;;;13.20;8.23;;;;;;;21.27;49.08;101861.25;5008633;28;20120;-81
2021/08/31 03:36:41;;;;;;;12.38;8.40;;;;;;;21.25;49.50;101861.38;5010164;28;20092;-81
2021/08/31 03:39:08;;;;;;;13.30;8.82;;;;;;;21.25;49.14;101872.44;5027289;28;20121;-81
2021/08/31 03:41:34;;;;;;;11.98;8.88;;;;;;;21.24;49.61;101872.59;5008859;28;20041;-80
2021/08/31 03:44:01;;;;;;;11.43;8.50;;;;;;;21.21;49.40;101873.75;5000315;28;20050;-80
2021/08/31 03:46:27;;;;;;;11.15;7.93;;;;;;;21.20;49.25;101887.72;5020800;28;20108;-80
2021/08/31 03:48:54;;;;;;;10.32;7.25;;;;;;;21.18;49.70;101881.44;5008394;28;20138;-80
2021/08/31 03:51:21;;;;;;;10.93;8.15;;;;;;;21.17;49.33;101886.09;5008409;28;20050;-80
2021/08/31 03:53:47;;;;;;;11.70;8.70;;;;;;;21.14;49.48;101879.97;5007743;28;20042;-81
2021/08/31 03:56:14;;;;;;;15.05;9.43;;;;;;;21.13;49.65;101881.88;5010709;28;20076;-80
2021/08/31 03:58:40;;;;;;;12.45;9.15;;;;;;;21.11;49.76;101880.25;5008564;28;20074;-80
2021/08/31 04:01:07;;;;;;;12.13;8.38;;;;;;;21.09;49.62;101879.53;5007320;28;20128;-80
2021/08/31 04:03:34;;;;;;;12.70;9.02;;;;;;;21.08;49.57;101884.22;5026993;28;20096;-80
2021/08/31 04:06:01;;;;;;;12.95;9.30;;;;;;;21.06;49.46;101891.75;5007101;28;20628;-80
2021/08/31 04:08:27;;;;;;;12.18;8.20;;;;;;;21.04;49.74;101888.25;5007293;28;20077;-80
2021/08/31 04:10:54;;;;;;;13.93;8.30;;;;;;;21.03;49.49;101894.81;5013490;28;20081;-80
2021/08/31 04:13:20;;;;;;;11.38;8.50;;;;;;;21.01;49.99;101891.31;5012756;28;20076;-80
2021/08/31 04:15:48;;;;;;;11.52;7.97;;;;;;;21.01;49.64;101901.47;5008291;28;20092;-81
2021/08/31 04:18:15;;;;;;;13.60;9.07;;;;;;;21.00;50.07;101905.28;5012158;28;20096;-81
2021/08/31 04:20:42;;;;;;;13.05;8.85;;;;;;;20.99;49.79;101920.09;5009347;28;20107;-80
2021/08/31 04:23:09;;;;;;;11.68;8.23;;;;;;;20.98;50.00;101915.59;5007563;28;20077;-80
2021/08/31 04:25:36;;;;;;;13.10;8.82;;;;;;;20.98;50.01;101910.94;5027351;28;20046;-80
2021/08/31 04:28:02;;;;;;;13.77;9.35;;;;;;;20.98;50.41;101913.69;5010671;28;20049;-80
2021/08/31 04:30:29;;;;;;;15.50;10.23;;;;;;;20.98;50.04;101915.59;5014445;28;20104;-80
2021/08/31 04:32:57;;;;;;;12.55;9.38;;;;;;;20.98;50.19;101921.09;5006345;28;20076;-80
2021/08/31 04:35:24;;;;;;;12.55;9.18;;;;;;;20.96;50.13;101924.00;5010863;28;20038;-80
2021/08/31 04:37:52;;;;;;;14.43;10.02;;;;;;;20.96;50.35;101920.38;5010939;28;20053;-80
2021/08/31 04:40:19;;;;;;;15.98;11.02;;;;;;;20.95;50.25;101926.91;5009846;28;20050;-80
2021/08/31 04:42:46;;;;;;;15.15;9.88;;;;;;;20.94;50.40;101927.91;5022878;28;20045;-80
2021/08/31 04:45:12;;;;;;;15.65;10.30;;;;;;;20.95;50.35;101924.16;5012506;28;20452;-80
2021/08/31 04:47:39;;;;;;;13.77;10.13;;;;;;;20.93;50.32;101927.03;5009097;28;20042;-80
2021/08/31 04:50:06;;;;;;;15.07;10.20;;;;;;;20.94;50.21;101919.63;5009927;28;20046;-81
2021/08/31 04:52:33;;;;;;;14.93;9.48;;;;;;;20.95;50.48;101921.38;5003962;28;20041;-81
2021/08/31 04:55:00;;;;;;;16.30;10.70;;;;;;;20.96;50.27;101920.38;5009832;28;20132;-79
2021/08/31 04:57:26;;;;;;;18.00;11.00;;;;;;;20.98;50.79;101921.09;4999909;28;20485;-79
2021/08/31 04:59:53;;;;;;;16.80;10.73;;;;;;;20.97;50.19;101925.75;5009294;28;20045;-79
2021/08/31 05:02:20;;;;;;;16.95;10.68;;;;;;;20.97;50.77;101930.41;5009821;28;20050;-79
2021/08/31 05:04:47;;;;;;;16.52;11.00;;;;;;;20.98;50.66;101937.69;5008304;28;20559;-79
2021/08/31 05:07:15;;;;;;;18.00;11.13;;;;;;;20.98;50.75;101945.97;5010249;28;20500;-79
2021/08/31 05:09:41;;;;;;;16.33;11.07;;;;;;;20.96;50.83;101951.63;5007604;28;20529;-79
2021/08/31 05:12:08;;;;;;;14.35;10.18;;;;;;;20.96;50.43;101948.84;5012142;28;20042;-79
2021/08/31 05:14:35;;;;;;;17.60;10.88;;;;;;;20.95;50.68;101955.38;5009051;28;20050;-80
2021/08/31 05:17:03;;;;;;;18.20;11.77;;;;;;;20.97;50.76;101950.59;5009349;28;20046;-79
2021/08/31 05:19:31;;;;;;;20.23;11.98;;;;;;;20.97;50.60;101949.72;5015891;28;20096;-79
2021/08/31 05:22:00;;;;;;;17.63;11.48;;;;;;;20.98;51.01;101948.72;5002617;28;20038;-79
2021/08/31 05:24:30;;;;;;;23.63;13.73;;;;;;;21.00;50.70;101952.22;5006461;28;20042;-78
2021/08/31 05:26:57;;;;;;;21.67;13.27;;;;;;;21.00;51.11;101957.75;5005805;28;20065;-78
2021/08/31 05:29:23;;;;;;;22.67;14.27;;;;;;;21.00;50.51;101960.50;5009968;28;21510;-78
2021/08/31 05:31:50;;;;;;;22.67;14.60;;;;;;;21.00;50.81;101966.88;5013195;28;20099;-78
2021/08/31 05:34:17;;;;;;;22.73;14.95;;;;;;;21.00;50.89;101969.63;5007182;28;20074;-79
2021/08/31 05:36:44;;;;;;;24.77;14.93;;;;;;;21.00;50.57;101971.53;5009039;28;20099;-75
2021/08/31 05:39:10;;;;;;;23.27;14.25;;;;;;;20.99;50.50;101967.91;5010019;28;20156;-76
2021/08/31 05:41:37;;;;;;;25.27;15.13;;;;;;;21.01;50.88;101973.25;5009102;28;20053;-76
2021/08/31 05:44:04;;;;;;;28.25;16.08;;;;;;;20.99;51.22;101972.56;5008665;28;20145;-76
2021/08/31 05:46:31;;;;;;;26.27;14.88;;;;;;;21.00;50.81;101975.16;5004573;28;20082;-76
2021/08/31 05:48:58;;;;;;;29.48;16.50;;;;;;;20.99;50.90;101973.44;5007758;28;20049;-77
2021/08/31 05:51:25;;;;;;;26.70;16.55;;;;;;;20.98;50.72;101977.22;5010597;28;20416;-77
2021/08/31 05:53:54;;;;;;;26.23;15.18;;;;;;;21.00;51.00;101982.59;5006468;28;20444;-78
2021/08/31 05:56:21;;;;;;;26.65;16.38;;;;;;;21.00;51.44;101986.19;5012825;28;20054;-77
2021/08/31 05:58:48;;;;;;;28.30;17.33;;;;;;;21.01;50.87;101985.19;5005766;28;20050;-78
2021/08/31 06:01:15;;;;;;;29.00;15.90;;;;;;;21.02;51.16;101986.06;5006885;28;20104;-77
2021/08/31 06:03:42;;;;;;;27.83;16.25;;;;;;;21.02;51.44;101986.94;5009228;28;20712;-76
2021/08/31 06:06:09;;;;;;;29.25;16.92;;;;;;;21.03;50.95;101990.56;5007375;28;20052;-76
2021/08/31 06:08:36;;;;;;;24.67;15.52;;;;;;;21.04;50.93;101995.97;5005892;28;20104;-77
2021/08/31 06:11:03;;;;;;;26.13;15.20;;;;;;;21.04;51.26;102000.59;5009079;28;20100;-75
2021/08/31 06:13:30;;;;;;;25.17;15.80;;;;;;;21.04;50.97;101995.97;5008519;28;20097;-79
2021/08/31 06:15:56;;;;;;;27.00;15.18;;;;;;;21.05;51.42;101997.72;5008668;28;20076;-77
2021/08/31 06:18:23;;;;;;;28.70;16.98;;;;;;;21.07;51.02;102000.34;5004987;28;20100;-78
2021/08/31 06:20:50;;;;;;;29.05;15.95;;;;;;;21.06;51.29;102001.34;5013486;28;20646;-77
2021/08/31 06:23:17;;;;;;;30.63;17.40;;;;;;;21.07;51.37;102003.09;5010641;28;20057;-76
2021/08/31 06:25:44;;;;;;;24.42;16.13;;;;;;;21.09;51.49;102014.84;5011908;28;20077;-77
2021/08/31 06:28:11;;;;;;;28.63;16.63;;;;;;;21.09;50.98;102012.97;5010617;28;20049;-77
2021/08/31 06:30:38;;;;;;;30.95;17.48;;;;;;;21.08;51.02;102011.25;5006768;28;20054;-78
2021/08/31 06:33:04;;;;;;;28.25;17.00;;;;;;;21.10;51.13;102014.72;5012524;28;20050;-78
2021/08/31 06:35:31;;;;;;;30.50;17.45;;;;;;;21.11;51.28;102013.69;5012961;28;20132;-79
2021/08/31 06:37:58;;;;;;;32.72;19.10;;;;;;;21.13;51.26;102022.72;5009291;28;20046;-78
2021/08/31 06:40:24;;;;;;;38.63;19.83;;;;;;;21.14;51.07;102027.22;5007836;28;20485;-76
2021/08/31 06:42:52;;;;;;;37.40;19.98;;;;;;;21.13;51.32;102022.72;5003053;28;20046;-77
2021/08/31 06:45:19;;;;;;;35.78;18.95;;;;;;;21.12;50.77;102023.72;5011956;28;20085;-77
2021/08/31 06:47:46;;;;;;;34.65;19.25;;;;;;;21.12;50.96;102022.84;5008178;28;20401;-77
2021/08/31 06:50:16;;;;;;;37.38;20.13;;;;;;;21.10;50.95;102022.13;5011393;28;20042;-76
2021/08/31 06:52:45;;;;;;;35.67;19.45;;;;;;;21.11;51.39;102024.75;5011172;28;20104;-78
2021/08/31 06:55:13;;;;;;;36.70;20.05;;;;;;;21.10;51.41;102028.50;5012627;28;20116;-78
2021/08/31 06:57:40;;;;;;;39.10;20.67;;;;;;;21.08;51.21;102026.94;5010940;28;20073;-78
2021/08/31 07:00:08;;;;;;;37.33;21.25;;;;;;;21.08;51.37;102025.03;5010370;28;20085;-76
2021/08/31 07:02:35;;;;;;;33.65;19.85;;;;;;;21.06;51.48;102026.19;5003911;28;20128;-77
2021/08/31 07:05:02;;;;;;;33.20;18.95;;;;;;;21.06;51.24;102029.84;5011687;28;20121;-77
2021/08/31 07:07:28;;;;;;;37.10;20.45;;;;;;;21.07;51.70;102031.59;5014975;28;20133;-77
2021/08/31 07:09:55;;;;;;;37.85;21.10;;;;;;;21.08;51.33;102033.34;5010131;28;21040;-76
2021/08/31 07:12:22;;;;;;;33.80;20.13;;;;;;;21.09;51.35;102040.56;5008467;28;20050;-77
2021/08/31 07:14:51;;;;;;;38.65;21.52;;;;;;;21.10;51.32;102039.56;5010315;28;20100;-76
2021/08/31 07:17:17;;;;;;;41.10;21.25;;;;;;;21.12;51.42;102036.66;5005231;28;20429;-76
2021/08/31 07:19:44;;;;;;;39.53;21.75;;;;;;;21.11;51.00;102044.06;5008971;28;20096;-77
2021/08/31 07:22:11;;;;;;;33.88;20.25;;;;;;;21.10;51.30;102047.84;5004837;28;20089;-76
2021/08/31 07:24:37;;;;;;;35.58;20.42;;;;;;;21.11;51.41;102048.72;5005489;28;20045;-76
2021/08/31 07:27:04;;;;;;;33.13;19.80;;;;;;;21.10;51.06;102050.59;5006051;28;20563;-77
2021/08/31 07:29:30;;;;;;;33.72;20.63;;;;;;;21.10;51.22;102044.22;5005094;28;20560;-76
2021/08/31 07:31:57;;;;;;;38.55;21.83;;;;;;;21.10;51.36;102050.59;5000011;28;20045;-76
2021/08/31 07:34:24;;;;;;;37.13;21.75;;;;;;;21.10;51.13;102047.84;5007808;28;20497;-77
2021/08/31 07:36:50;;;;;;;34.70;21.13;;;;;;;21.10;50.97;102046.97;5007388;28;20128;-76
2021/08/31 07:39:17;;;;;;;36.22;20.20;;;;;;;21.10;50.88;102058.03;5006277;28;20069;-76
2021/08/31 07:41:43;;;;;;;34.40;20.75;;;;;;;21.10;50.82;102063.53;5001526;28;20132;-77
2021/08/31 07:44:10;;;;;;;31.80;19.48;;;;;;;21.10;51.18;102071.81;5008161;28;20290;-76
2021/08/31 07:46:37;;;;;;;32.78;20.80;;;;;;;21.08;51.11;102077.53;5007704;28;20492;-77
2021/08/31 07:49:03;;;;;;;32.80;19.35;;;;;;;21.08;50.80;102071.13;5015697;28;20489;-76
2021/08/31 07:51:30;;;;;;;35.58;21.45;;;;;;;21.07;50.75;102073.00;5011341;28;20727;-77
2021/08/31 07:53:56;;;;;;;34.28;20.50;;;;;;;21.06;51.22;102074.00;5012258;28;20073;-77
2021/08/31 07:56:23;;;;;;;30.40;18.73;;;;;;;21.05;51.07;102076.91;5004749;28;20042;-77
2021/08/31 07:58:49;;;;;;;35.55;20.35;;;;;;;21.05;51.37;102082.44;5007648;28;20073;-77
2021/08/31 08:01:16;;;;;;;33.30;21.15;;;;;;;21.05;51.19;102083.31;5008889;28;20069;-77
2021/08/31 08:03:43;;;;;;;32.90;20.52;;;;;;;21.04;51.14;102086.22;5008643;28;20054;-77
2021/08/31 08:06:09;;;;;;;30.85;19.92;;;;;;;21.03;51.27;102084.47;5007012;28;20061;-77
2021/08/31 08:08:36;;;;;;;32.08;21.05;;;;;;;21.03;51.27;102089.97;5008909;28;20602;-77
2021/08/31 08:11:03;;;;;;;33.03;20.50;;;;;;;21.02;51.39;102091.00;5008650;28;20058;-77
2021/08/31 08:13:29;;;;;;;32.22;20.90;;;;;;;21.01;51.27;102086.47;5007021;28;20133;-76
2021/08/31 08:15:56;;;;;;;33.72;20.92;;;;;;;20.99;51.24;102097.69;5007010;28;20096;-77
2021/08/31 08:18:23;;;;;;;35.28;20.65;;;;;;;21.01;51.08;102092.00;5014799;28;20358;-78
2021/08/31 08:20:50;;;;;;;33.85;20.40;;;;;;;21.00;51.16;102093.88;5021103;28;20057;-77
2021/08/31 08:23:16;;;;;;;33.58;20.55;;;;;;;21.01;51.09;102097.53;5027868;28;20100;-76
2021/08/31 08:25:43;;;;;;;36.88;20.95;;;;;;;21.00;51.33;102093.03;5009417;28;20111;-77
2021/08/31 08:28:22;;;;;;;37.13;20.98;;;;;;;21.01;51.38;102098.41;5006914;28;20057;-76
2021/08/31 08:30:50;;;;;;;37.00;20.92;;;;;;;21.01;51.40;102100.28;5005891;28;20538;-77
2021/08/31 08:33:17;;;;;;;38.42;22.50;;;;;;;21.01;51.23;102103.03;5006295;28;20408;-77
2021/08/31 08:35:44;;;;;;;33.13;20.70;;;;;;;21.00;51.14;102104.09;5006991;28;20570;-77
2021/08/31 08:38:11;;;;;;;40.20;21.25;;;;;;;21.02;51.47;102102.91;5008771;28;20463;-76
2021/08/31 08:40:37;;;;;;;32.63;20.08;;;;;;;21.02;51.54;102104.78;5009207;28;20050;-77
2021/08/31 08:43:05;;;;;;;32.25;20.33;;;;;;;21.04;50.97;102106.41;4999042;28;20081;-77
2021/08/31 08:45:33;;;;;;;30.35;18.95;;;;;;;21.05;50.97;102110.06;5009664;28;20049;-77
2021/08/31 08:48:00;;;;;;;32.33;20.17;;;;;;;21.06;51.54;102109.91;5015819;28;20045;-76
2021/08/31 08:50:28;;;;;;;29.60;18.73;;;;;;;21.07;51.15;102102.50;5029303;28;20103;-77
2021/08/31 08:52:55;;;;;;;35.50;20.88;;;;;;;21.11;51.19;102112.25;5008292;28;20076;-77
2021/08/31 08:55:25;;;;;;;32.45;19.83;;;;;;;21.12;51.16;102102.94;5012465;28;20058;-76
2021/08/31 08:57:52;;;;;;;33.72;20.73;;;;;;;21.13;51.45;102105.56;5010569;28;20057;-77
2021/08/31 09:00:20;;;;;;;33.63;20.27;;;;;;;21.15;51.55;102100.78;5011595;28;20054;-76
2021/08/31 09:02:47;;;;;;;35.88;22.88;;;;;;;21.17;51.40;102100.66;5009974;28;20058;-77
2021/08/31 09:05:32;;;;;;;33.63;20.20;;;;;;;21.20;51.07;102105.91;5012262;28;20058;-76
2021/08/31 09:08:06;;;;;;;32.35;19.83;;;;;;;21.22;51.58;102109.41;5007961;28;20054;-76
2021/08/31 09:10:34;;;;;;;32.85;19.67;;;;;;;21.21;51.07;102104.91;5014270;28;20050;-77
2021/08/31 09:13:02;;;;;;;32.92;19.73;;;;;;;21.23;51.21;102108.41;5010974;28;20390;-76
2021/08/31 09:15:35;;;;;;;33.35;20.48;;;;;;;21.27;51.30;102102.44;5012184;28;20092;-76
2021/08/31 09:18:04;;;;;;;33.67;20.98;;;;;;;21.29;51.08;102104.19;5017045;28;20140;-76
2021/08/31 09:20:32;;;;;;;36.38;22.10;;;;;;;21.28;51.60;102100.56;5021522;28;20580;-76
2021/08/31 09:22:59;;;;;;;34.90;20.73;;;;;;;21.29;51.35;102105.06;5008270;28;20493;-76
2021/08/31 09:25:37;;;;;;;35.05;21.73;;;;;;;21.33;51.03;102101.00;5011040;28;20069;-76
2021/08/31 09:28:18;;;;;;;32.95;19.55;;;;;;;21.34;51.21;102108.25;5010015;28;20302;-77
2021/08/31 09:30:44;;;;;;;30.55;20.52;;;;;;;21.33;51.45;102105.69;5011546;28;20501;-76
2021/08/31 09:33:15;;;;;;;29.60;20.08;;;;;;;21.36;51.48;102102.59;5009752;28;20069;-76
2021/08/31 09:35:57;;;;;;;29.20;19.10;;;;;;;21.39;51.03;102103.22;5009381;28;20089;-76
2021/08/31 09:38:24;;;;;;;28.55;17.17;;;;;;;21.35;51.27;102100.84;5010189;28;20065;-76
2021/08/31 09:40:53;;;;;;;29.00;19.02;;;;;;;21.41;51.34;102103.06;5011471;28;20057;-76
2021/08/31 09:43:25;;;;;;;26.15;17.70;;;;;;;21.43;51.83;102104.66;5008889;28;20690;-77
2021/08/31 09:45:54;;;;;;;26.08;17.02;;;;;;;21.48;51.49;102109.78;5010268;28;20077;-77
2021/08/31 09:48:23;;;;;;;24.70;17.25;;;;;;;21.51;51.54;102115.88;5018656;28;20095;-76
2021/08/31 09:50:52;;;;;;;24.65;16.20;;;;;;;21.55;51.64;102111.81;5022762;28;20057;-76
2021/08/31 09:53:24;;;;;;;21.48;14.80;;;;;;;21.60;51.92;102111.38;4999313;28;20042;-77
2021/08/31 09:56:04;;;;;;;24.48;15.88;;;;;;;21.63;52.09;102106.44;5010322;28;20050;-76
2021/08/31 09:58:33;;;;;;;21.25;14.80;;;;;;;21.69;52.19;102099.44;5009491;28;20363;-76
2021/08/31 10:01:00;;;;;;;22.30;14.77;;;;;;;21.75;52.15;102098.00;5010130;28;20133;-76
2021/08/31 10:03:27;;;;;;;19.13;12.93;;;;;;;21.80;52.09;102093.78;5004068;28;20049;-76
2021/08/31 10:05:56;;;;;;;17.90;13.23;;;;;;;21.89;52.00;102086.53;5009908;28;20131;-77
2021/08/31 10:08:23;;;;;;;16.83;11.60;;;;;;;21.95;51.81;102083.16;5010210;28;20045;-76
2021/08/31 10:10:51;;;;;;;14.82;11.43;;;;;;;22.04;52.03;102095.28;5010151;28;20102;-76
2021/08/31 10:13:22;;;;;;;14.02;9.95;;;;;;;22.14;51.64;102094.25;5008398;28;20034;-76
2021/08/31 10:15:55;;;;;;;15.18;11.02;;;;;;;22.25;50.85;102099.59;5010134;28;20104;-76
2021/08/31 10:18:27;;;;;;;15.98;10.90;;;;;;;22.34;51.95;102090.41;5011641;28;20123;-76
2021/08/31 10:20:58;;;;;;;15.38;10.80;;;;;;;22.43;51.87;102090.53;5017876;28;20050;-76
2021/08/31 10:23:32;;;;;;;15.07;9.70;;;;;;;22.56;51.29;102091.97;5009710;28;20045;-76
2021/08/31 10:26:25;;;;;;;15.18;10.25;;;;;;;22.67;50.87;102088.13;5009527;28;20062;-76
2021/08/31 10:29:11;;;;;;;;;;;;;;;22.47;52.21;102090.09;5010109;28;20069;-76
2021/08/31 10:31:38;;;;;;;9.27;6.47;;;;;;;22.81;51.46;102097.91;5004501;28;19925;-76
2021/08/31 10:34:29;;;;;;;9.32;7.05;;;;;;;22.95;50.25;102109.34;5005500;28;20096;-76
2021/08/31 10:37:11;;;;;;;10.35;7.10;;;;;;;23.04;49.91;102097.34;5000877;28;20486;-76
2021/08/31 10:39:55;;;;;;;12.35;8.20;;;;;;;23.11;50.23;102098.47;5006162;28;20124;-75
2021/08/31 10:42:24;;;;;;;10.75;7.88;;;;;;;23.20;50.52;102098.56;5008695;28;20050;-74
2021/08/31 10:44:52;;;;;;;9.75;7.85;;;;;;;23.27;50.56;102102.47;5004307;28;20065;-74
2021/08/31 10:47:27;;;;;;;12.88;8.90;;;;;;;23.39;49.04;102110.41;5009370;28;20579;-74
2021/08/31 10:49:57;;;;;;;10.55;8.18;;;;;;;23.45;48.07;102108.94;5013757;28;20112;-76
2021/08/31 10:52:37;;;;;;;11.02;8.02;;;;;;;23.51;47.14;102109.19;5004360;28;20429;-75
2021/08/31 10:55:05;;;;;;;10.65;8.02;;;;;;;23.54;48.36;102102.47;5005876;28;20133;-76
2021/08/31 10:57:35;;;;;;;10.93;7.78;;;;;;;23.61;48.07;102091.63;5005187;28;20559;-76
2021/08/31 11:00:25;;;;;;;9.60;7.70;;;;;;;23.61;47.71;102092.50;5009211;28;20663;-75
2021/08/31 11:02:53;;;;;;;8.45;7.00;;;;;;;23.71;48.69;102098.84;5002256;28;20054;-75
2021/08/31 11:05:20;;;;;;;9.23;7.03;;;;;;;23.79;47.90;102096.16;5004469;28;20042;-73
2021/08/31 11:08:00;;;;;;;8.27;7.10;;;;;;;23.88;46.27;102106.28;5007400;28;20061;-74
2021/08/31 11:10:32;;;;;;;9.68;6.72;;;;;;;23.93;47.32;102099.41;5007246;28;20505;-74
2021/08/31 11:13:12;;;;;;;8.52;6.75;;;;;;;23.98;45.88;102099.78;5008101;28;20104;-74
2021/08/31 11:15:40;;;;;;;8.52;6.63;;;;;;;23.99;46.37;102093.19;5007598;28;20384;-74
2021/08/31 11:18:11;;;;;;;9.88;7.05;;;;;;;24.02;45.74;102091.00;5008895;28;20042;-74
2021/08/31 11:20:39;;;;;;;8.65;6.50;;;;;;;24.05;45.68;102087.03;5006346;28;20135;-73
2021/08/31 11:23:08;;;;;;;7.70;6.40;;;;;;;24.09;45.92;102092.09;5007362;28;20049;-75
2021/08/31 11:25:39;;;;;;;7.53;5.63;;;;;;;24.13;45.64;102092.66;5008826;28;20046;-75